Time;durP1;ratioP1;P1;durP2;ratioP2;P2;SDS_P1;SDS_P2;PMS_P1;PMS_P2;Temp;Humidity;BMP_temperature;BMP_pressure;BME280_temperature;BME280_humidity;BME280_pressure;Samples;Min_cycle;Max_cycle;Signal;HPM_P1;HPM_P2
2022/12/07 00:02:37;;;;;;;9.23;5.05;;;;;;;;;;5035143;28;20712;-69
2022/12/07 00:05:23;;;;;;;8.13;4.75;;;;;;;;;;5029931;28;20369;-71
2022/12/07 00:08:08;;;;;;;9.93;5.25;;;;;;;;;;5029967;28;20029;-70
2022/12/07 00:10:53;;;;;;;7.95;4.53;;;;;;;;;;5028761;28;20041;-71
2022/12/07 00:13:39;;;;;;;8.00;4.82;;;;;;;;;;5038732;28;20415;-70
2022/12/07 00:16:26;;;;;;;9.68;4.80;;;;;;;;;;5031289;28;20037;-69
2022/12/07 00:19:12;;;;;;;8.63;5.95;;;;;;;;;;5042133;28;20073;-70
2022/12/07 00:21:57;;;;;;;8.55;5.18;;;;;;;;;;5029498;28;20144;-69
2022/12/07 00:24:42;;;;;;;9.18;4.95;;;;;;;;;;5030535;28;20036;-77
2022/12/07 00:27:27;;;;;;;8.98;4.75;;;;;;;;;;5034493;28;20044;-75
2022/12/07 00:30:13;;;;;;;10.57;5.38;;;;;;;;;;5029472;28;20507;-74
2022/12/07 00:32:58;;;;;;;9.70;5.68;;;;;;;;;;5033852;28;20024;-74
2022/12/07 00:35:43;;;;;;;9.32;5.57;;;;;;;;;;5040041;28;20028;-74
2022/12/07 00:38:30;;;;;;;8.73;4.53;;;;;;;;;;5028134;28;20037;-72
2022/12/07 00:41:16;;;;;;;10.45;5.68;;;;;;;;;;5044154;28;20044;-72
2022/12/07 00:44:01;;;;;;;9.00;5.40;;;;;;;;;;5037014;28;20104;-72
2022/12/07 00:46:47;;;;;;;10.18;5.18;;;;;;;;;;5041008;28;20089;-72
2022/12/07 00:49:32;;;;;;;9.05;5.45;;;;;;;;;;5035729;28;20443;-73
2022/12/07 00:52:17;;;;;;;9.80;5.75;;;;;;;;;;5037409;28;20135;-73
2022/12/07 00:55:02;;;;;;;10.25;6.15;;;;;;;;;;5033246;28;20037;-73
2022/12/07 00:57:47;;;;;;;9.70;6.38;;;;;;;;;;5030207;28;20044;-75
2022/12/07 01:00:34;;;;;;;9.65;5.70;;;;;;;;;;5032063;28;20025;-78
2022/12/07 01:03:19;;;;;;;11.15;6.55;;;;;;;;;;5033946;28;20021;-73
2022/12/07 01:06:05;;;;;;;13.93;6.57;;;;;;;;;;5034843;28;20029;-73
2022/12/07 01:08:50;;;;;;;8.55;5.93;;;;;;;;;;5029533;28;20044;-74
2022/12/07 01:11:36;;;;;;;10.35;6.05;;;;;;;;;;5024912;28;20033;-72
2022/12/07 01:14:21;;;;;;;10.18;6.38;;;;;;;;;;4999544;28;20045;-74
2022/12/07 01:17:06;;;;;;;11.95;6.93;;;;;;;;;;4992866;28;20029;-73
2022/12/07 01:19:51;;;;;;;10.70;7.05;;;;;;;;;;5019584;28;20108;-74
2022/12/07 01:22:40;;;;;;;12.60;6.75;;;;;;;;;;5010703;28;20022;-73
2022/12/07 01:25:25;;;;;;;10.97;7.00;;;;;;;;;;5008902;28;20496;-74
2022/12/07 01:28:10;;;;;;;16.75;6.88;;;;;;;;;;5020254;28;20276;-74
2022/12/07 01:30:57;;;;;;;9.10;5.90;;;;;;;;;;5012665;28;20034;-73
2022/12/07 01:33:50;;;;;;;11.68;6.95;;;;;;;;;;5016901;28;20021;-72
2022/12/07 01:36:36;;;;;;;9.50;6.00;;;;;;;;;;5012768;28;20121;-74
2022/12/07 01:39:21;;;;;;;9.57;5.75;;;;;;;;;;5016577;28;20028;-74
2022/12/07 01:42:09;;;;;;;13.60;6.18;;;;;;;;;;5017301;28;20447;-74
2022/12/07 01:45:13;;;;;;;10.43;6.15;;;;;;;;;;5012947;28;20100;-72
2022/12/07 01:47:58;;;;;;;11.27;6.00;;;;;;;;;;5007691;28;20036;-72
2022/12/07 01:50:44;;;;;;;10.35;5.80;;;;;;;;;;5022823;28;20021;-72
2022/12/07 01:53:30;;;;;;;10.35;6.32;;;;;;;;;;5012415;28;20396;-74
2022/12/07 01:56:18;;;;;;;11.10;6.47;;;;;;;;;;5012493;28;20092;-73
2022/12/07 01:59:03;;;;;;;10.18;6.13;;;;;;;;;;5019946;28;20023;-72
2022/12/07 02:01:49;;;;;;;10.13;5.88;;;;;;;;;;5024116;28;20025;-73
2022/12/07 02:04:35;;;;;;;10.15;5.97;;;;;;;;;;5026862;28;20041;-72
2022/12/07 02:07:20;;;;;;;12.48;5.70;;;;;;;;;;5013672;28;20480;-73
2022/12/07 02:10:16;;;;;;;11.23;6.22;;;;;;;;;;5009267;28;20033;-74
2022/12/07 02:13:03;;;;;;;11.82;6.80;;;;;;;;;;5018819;28;20534;-70
2022/12/07 02:16:00;;;;;;;11.23;6.38;;;;;;;;;;5035622;28;20519;-70
2022/12/07 02:18:52;;;;;;;11.13;5.97;;;;;;;;;;5031173;28;20584;-70
2022/12/07 02:21:43;;;;;;;11.18;6.50;;;;;;;;;;5049901;28;20048;-69
2022/12/07 02:24:47;;;;;;;11.70;5.72;;;;;;;;;;5031880;28;20056;-68
2022/12/07 02:27:40;;;;;;;9.15;5.97;;;;;;;;;;5025291;28;20044;-69
2022/12/07 02:30:28;;;;;;;11.00;6.35;;;;;;;;;;5030787;28;20037;-69
2022/12/07 02:33:18;;;;;;;12.95;6.60;;;;;;;;;;5032281;28;20027;-69
2022/12/07 02:36:03;;;;;;;9.25;5.30;;;;;;;;;;5040317;28;20041;-72
2022/12/07 02:38:55;;;;;;;11.63;6.40;;;;;;;;;;5034134;28;20035;-73
2022/12/07 02:41:44;;;;;;;9.85;5.63;;;;;;;;;;5033377;28;20594;-71
2022/12/07 02:44:31;;;;;;;10.75;6.85;;;;;;;;;;5034041;28;20032;-71
2022/12/07 02:47:18;;;;;;;12.10;6.03;;;;;;;;;;5029064;28;20037;-71
2022/12/07 02:50:04;;;;;;;12.35;6.10;;;;;;;;;;5031183;28;20028;-73
2022/12/07 02:52:49;;;;;;;11.55;6.32;;;;;;;;;;5022750;28;20038;-74
2022/12/07 02:55:38;;;;;;;10.93;6.43;;;;;;;;;;5031870;28;20551;-72
2022/12/07 02:58:42;;;;;;;11.50;6.25;;;;;;;;;;5033217;28;20473;-72
2022/12/07 03:01:33;;;;;;;10.90;6.15;;;;;;;;;;5033400;28;20123;-73
2022/12/07 03:04:18;;;;;;;12.30;6.68;;;;;;;;;;5035026;28;20025;-73
2022/12/07 03:07:13;;;;;;;9.73;5.80;;;;;;;;;;5032073;28;20033;-74
2022/12/07 03:10:12;;;;;;;9.57;5.22;;;;;;;;;;5027241;28;20040;-81
2022/12/07 03:12:58;;;;;;;;;;;;;;;;;;5028791;28;20055;-69
2022/12/07 03:15:49;;;;;;;10.48;5.65;;;;;;;;;;5029970;28;20276;-69
2022/12/07 03:18:41;;;;;;;10.95;6.00;;;;;;;;;;5034436;28;20033;-70
2022/12/07 03:21:30;;;;;;;10.68;6.03;;;;;;;;;;5044124;28;20048;-69
2022/12/07 03:24:17;;;;;;;8.48;5.35;;;;;;;;;;5031643;28;20037;-71
2022/12/07 03:27:14;;;;;;;8.25;4.60;;;;;;;;;;5034535;28;20021;-72
2022/12/07 03:30:06;;;;;;;9.38;4.88;;;;;;;;;;5034627;28;20035;-67
2022/12/07 03:32:54;;;;;;;11.93;5.55;;;;;;;;;;5030222;28;20024;-70
2022/12/07 03:35:44;;;;;;;12.43;6.80;;;;;;;;;;5032290;28;20060;-69
2022/12/07 03:38:32;;;;;;;8.50;5.30;;;;;;;;;;5032738;28;20033;-67
2022/12/07 03:41:29;;;;;;;9.95;5.22;;;;;;;;;;5019027;28;20036;-68
2022/12/07 03:44:15;;;;;;;10.50;5.63;;;;;;;;;;5028009;28;20585;-67
2022/12/07 03:47:26;;;;;;;9.40;6.10;;;;;;;;;;5033272;28;20017;-67
2022/12/07 03:50:30;;;;;;;14.32;6.53;;;;;;;;;;5081186;22;20063;-69
2022/12/07 03:53:19;;;;;;;13.05;6.88;;;;;;;;;;5068214;28;20081;-70
2022/12/07 03:56:05;;;;;;;11.43;5.70;;;;;;;;;;5063883;28;20071;-72
2022/12/07 03:58:51;;;;;;;10.63;5.47;;;;;;;;;;5080857;28;20047;-70
2022/12/07 04:01:37;;;;;;;9.57;5.63;;;;;;;;;;5068202;28;20059;-71
2022/12/07 04:04:23;;;;;;;10.80;5.32;;;;;;;;;;5048098;28;20035;-73
2022/12/07 04:07:09;;;;;;;10.23;5.13;;;;;;;;;;5068756;28;20031;-80
2022/12/07 04:09:57;;;;;;;12.07;6.00;;;;;;;;;;5071279;28;20024;-80
2022/12/07 04:12:42;;;;;;;13.13;5.40;;;;;;;;;;5072242;28;20437;-79
2022/12/07 04:15:28;;;;;;;9.02;5.25;;;;;;;;;;5068707;28;20036;-81
2022/12/07 04:18:13;;;;;;;10.38;6.22;;;;;;;;;;5067958;28;20047;-80
2022/12/07 04:20:58;;;;;;;12.00;6.40;;;;;;;;;;5071574;28;20131;-82
2022/12/07 04:23:43;;;;;;;11.77;5.53;;;;;;;;;;5067300;28;20123;-69
2022/12/07 04:26:29;;;;;;;11.88;6.53;;;;;;;;;;5056060;28;20056;-79
2022/12/07 04:29:14;;;;;;;12.70;5.95;;;;;;;;;;5058473;28;20036;-81
2022/12/07 04:32:00;;;;;;;11.45;5.93;;;;;;;;;;5057869;28;20098;-78
2022/12/07 04:34:45;;;;;;;11.70;6.47;;;;;;;;;;5051677;28;20028;-81
2022/12/07 04:37:30;;;;;;;11.23;5.90;;;;;;;;;;5032809;28;20040;-80
2022/12/07 04:40:15;;;;;;;10.18;6.47;;;;;;;;;;5053380;28;20025;-67
2022/12/07 04:43:00;;;;;;;11.00;5.93;;;;;;;;;;5051792;28;20372;-68
2022/12/07 04:45:47;;;;;;;9.18;5.20;;;;;;;;;;5036686;28;20112;-71
2022/12/07 04:48:32;;;;;;;10.32;6.20;;;;;;;;;;5051608;28;20091;-72
2022/12/07 04:51:22;;;;;;;9.13;5.18;;;;;;;;;;5049034;28;21907;-71
2022/12/07 04:54:08;;;;;;;9.50;5.68;;;;;;;;;;5050068;28;20056;-72
2022/12/07 04:56:53;;;;;;;9.60;5.10;;;;;;;;;;5053442;28;20052;-71
2022/12/07 04:59:38;;;;;;;11.35;6.10;;;;;;;;;;5036741;28;20040;-76
2022/12/07 05:02:23;;;;;;;9.70;5.15;;;;;;;;;;5062424;28;20028;-77
2022/12/07 05:05:09;;;;;;;8.15;4.38;;;;;;;;;;5056633;28;20016;-76
2022/12/07 05:07:54;;;;;;;9.50;4.55;;;;;;;;;;5052614;28;20028;-77
2022/12/07 05:10:39;;;;;;;8.15;4.05;;;;;;;;;;5062653;28;20020;-76
2022/12/07 05:13:24;;;;;;;7.20;4.10;;;;;;;;;;5062065;28;20582;-76
2022/12/07 05:16:09;;;;;;;8.18;5.05;;;;;;;;;;5053133;28;20032;-76
2022/12/07 05:18:55;;;;;;;8.18;4.93;;;;;;;;;;5052478;28;20112;-69
2022/12/07 05:21:40;;;;;;;7.53;4.38;;;;;;;;;;5037065;28;20139;-71
2022/12/07 05:24:25;;;;;;;6.30;4.32;;;;;;;;;;5052384;28;20021;-71
2022/12/07 05:27:10;;;;;;;9.02;4.57;;;;;;;;;;5052175;28;20400;-71
2022/12/07 05:29:56;;;;;;;10.18;4.45;;;;;;;;;;5055571;28;20123;-71
2022/12/07 05:32:41;;;;;;;8.48;4.00;;;;;;;;;;5059541;28;20075;-71
2022/12/07 05:35:26;;;;;;;6.90;3.85;;;;;;;;;;5059988;28;20098;-70
2022/12/07 05:38:11;;;;;;;7.18;3.92;;;;;;;;;;5058920;28;20471;-68
2022/12/07 05:41:01;;;;;;;7.85;4.32;;;;;;;;;;5054880;28;20040;-81
2022/12/07 05:43:46;;;;;;;8.05;4.30;;;;;;;;;;5054880;28;20360;-81
2022/12/07 05:46:31;;;;;;;7.97;4.55;;;;;;;;;;5051296;28;20035;-82
2022/12/07 05:49:17;;;;;;;7.45;3.65;;;;;;;;;;5040581;28;20132;-80
2022/12/07 05:52:02;;;;;;;8.05;3.70;;;;;;;;;;5026336;28;20573;-80
2022/12/07 05:54:47;;;;;;;9.30;4.50;;;;;;;;;;5033238;28;20032;-71
2022/12/07 05:57:33;;;;;;;6.55;3.97;;;;;;;;;;5033844;28;20034;-70
2022/12/07 06:00:18;;;;;;;8.18;4.30;;;;;;;;;;5032241;28;20091;-69
2022/12/07 06:03:03;;;;;;;7.38;3.92;;;;;;;;;;5033707;28;20029;-69
2022/12/07 06:05:48;;;;;;;8.38;3.92;;;;;;;;;;5038751;28;20024;-71
2022/12/07 06:08:34;;;;;;;8.68;4.47;;;;;;;;;;5031046;28;20029;-70
2022/12/07 06:14:23;;;;;;;8.57;4.50;;;;;;;;;;5043917;28;20041;-71
2022/12/07 06:17:09;;;;;;;7.18;3.47;;;;;;;;;;5032449;28;20381;-73
2022/12/07 06:19:54;;;;;;;6.80;3.38;;;;;;;;;;5032845;28;20045;-68
2022/12/07 06:22:39;;;;;;;8.70;4.47;;;;;;;;;;5054011;28;20036;-70
2022/12/07 06:25:24;;;;;;;6.93;4.13;;;;;;;;;;5033304;28;20053;-72
2022/12/07 06:28:09;;;;;;;9.05;3.90;;;;;;;;;;5028190;28;20037;-69
2022/12/07 06:30:59;;;;;;;6.97;3.90;;;;;;;;;;5035628;28;20036;-73
2022/12/07 06:33:44;;;;;;;9.55;3.85;;;;;;;;;;5034971;28;20032;-75
2022/12/07 06:36:29;;;;;;;9.05;4.50;;;;;;;;;;5029296;28;20123;-75
2022/12/07 06:39:14;;;;;;;10.35;4.30;;;;;;;;;;5042923;28;20036;-76
2022/12/07 06:42:00;;;;;;;9.90;4.80;;;;;;;;;;5034642;28;20033;-76
2022/12/07 06:44:45;;;;;;;7.97;4.47;;;;;;;;;;5036897;28;20208;-75
2022/12/07 06:47:30;;;;;;;7.85;3.92;;;;;;;;;;5035430;28;20547;-76
2022/12/07 06:50:15;;;;;;;8.43;4.15;;;;;;;;;;5050124;28;20044;-77
2022/12/07 06:53:00;;;;;;;6.72;3.92;;;;;;;;;;5037470;28;20106;-70
2022/12/07 06:55:46;;;;;;;9.77;3.85;;;;;;;;;;5038607;28;20044;-69
2022/12/07 06:58:31;;;;;;;8.82;4.68;;;;;;;;;;5056060;28;20028;-71
2022/12/07 07:01:17;;;;;;;8.68;4.40;;;;;;;;;;5048653;28;20032;-71
2022/12/07 07:04:03;;;;;;;8.25;4.18;;;;;;;;;;5050324;28;20017;-72
2022/12/07 07:06:48;;;;;;;8.23;4.20;;;;;;;;;;5066437;28;20025;-70
2022/12/07 07:09:33;;;;;;;6.65;4.10;;;;;;;;;;5059368;28;20036;-71
2022/12/07 07:12:18;;;;;;;7.45;4.15;;;;;;;;;;5057472;28;20026;-73
2022/12/07 07:15:04;;;;;;;9.00;4.53;;;;;;;;;;5040892;28;20028;-74
2022/12/07 07:17:49;;;;;;;6.85;4.30;;;;;;;;;;5047043;28;20115;-73
2022/12/07 07:20:34;;;;;;;8.73;4.85;;;;;;;;;;5054725;28;20119;-73
2022/12/07 07:23:20;;;;;;;10.48;4.35;;;;;;;;;;5049374;28;20108;-73
2022/12/07 07:26:06;;;;;;;8.20;4.60;;;;;;;;;;5045011;28;20028;-78
2022/12/07 07:28:51;;;;;;;7.60;4.53;;;;;;;;;;5038921;28;20023;-77
2022/12/07 07:31:37;;;;;;;8.13;4.15;;;;;;;;;;5054460;28;20032;-76
2022/12/07 07:34:22;;;;;;;9.10;4.30;;;;;;;;;;5069768;28;20361;-69
2022/12/07 07:37:07;;;;;;;8.93;4.28;;;;;;;;;;5034311;28;20040;-72
2022/12/07 07:39:52;;;;;;;8.82;4.78;;;;;;;;;;5064872;28;20467;-70
2022/12/07 07:42:38;;;;;;;9.00;4.75;;;;;;;;;;5057807;28;20117;-72
2022/12/07 07:45:24;;;;;;;7.47;4.18;;;;;;;;;;5052755;28;20383;-73
2022/12/07 07:48:09;;;;;;;10.90;5.47;;;;;;;;;;5050815;28;20385;-71
2022/12/07 07:50:54;;;;;;;9.75;5.13;;;;;;;;;;5032659;28;20116;-71
2022/12/07 07:53:39;;;;;;;8.77;4.45;;;;;;;;;;5038548;28;20119;-74
2022/12/07 07:56:25;;;;;;;10.30;5.53;;;;;;;;;;5028260;28;20045;-72
2022/12/07 07:59:10;;;;;;;9.73;4.72;;;;;;;;;;5046828;28;20031;-73
2022/12/07 08:01:55;;;;;;;9.60;4.53;;;;;;;;;;5032278;28;20037;-72
2022/12/07 08:04:40;;;;;;;9.73;4.85;;;;;;;;;;5033656;28;20110;-72
2022/12/07 08:07:26;;;;;;;10.70;4.90;;;;;;;;;;5037642;28;20028;-70
2022/12/07 08:10:13;;;;;;;8.77;4.80;;;;;;;;;;5044917;28;20024;-71
2022/12/07 08:13:10;;;;;;;9.65;4.40;;;;;;;;;;5042194;28;20020;-71
2022/12/07 08:15:55;;;;;;;8.38;4.53;;;;;;;;;;5037009;28;20029;-71
2022/12/07 08:18:41;;;;;;;10.05;4.57;;;;;;;;;;5035076;28;20100;-73
2022/12/07 08:21:26;;;;;;;11.38;5.68;;;;;;;;;;5034516;28;20017;-77
2022/12/07 08:24:12;;;;;;;8.35;4.68;;;;;;;;;;5031658;28;20035;-73
2022/12/07 08:26:57;;;;;;;10.50;4.25;;;;;;;;;;5032178;28;20040;-73
2022/12/07 08:29:42;;;;;;;8.63;4.40;;;;;;;;;;5033642;28;20048;-71
2022/12/07 08:32:27;;;;;;;9.38;4.68;;;;;;;;;;5020566;28;20036;-70
2022/12/07 08:35:13;;;;;;;9.05;4.43;;;;;;;;;;5024493;28;20024;-72
2022/12/07 08:37:58;;;;;;;9.70;5.10;;;;;;;;;;5050474;28;20562;-70
2022/12/07 08:40:43;;;;;;;11.07;5.28;;;;;;;;;;5031988;28;20464;-80
2022/12/07 08:43:29;;;;;;;7.95;4.72;;;;;;;;;;5024243;28;20036;-71
2022/12/07 08:46:25;;;;;;;8.55;4.35;;;;;;;;;;5041012;28;20035;-70
2022/12/07 08:49:23;;;;;;;8.88;4.93;;;;;;;;;;5041098;28;20057;-70
2022/12/07 08:52:08;;;;;;;10.20;3.97;;;;;;;;;;5051218;28;20028;-75
2022/12/07 08:54:53;;;;;;;8.63;4.38;;;;;;;;;;5053276;28;20394;-70
2022/12/07 08:57:39;;;;;;;9.38;4.28;;;;;;;;;;5058771;28;20029;-70
2022/12/07 09:00:25;;;;;;;7.80;4.60;;;;;;;;;;5063185;28;20029;-70
2022/12/07 09:03:11;;;;;;;11.32;5.45;;;;;;;;;;5052499;28;20039;-71
2022/12/07 09:05:57;;;;;;;8.32;4.05;;;;;;;;;;5056551;28;20203;-73
2022/12/07 09:08:43;;;;;;;8.27;4.70;;;;;;;;;;5056629;28;20107;-71
2022/12/07 09:11:29;;;;;;;8.32;4.05;;;;;;;;;;5056505;28;20720;-71
2022/12/07 09:14:14;;;;;;;6.80;3.75;;;;;;;;;;5056069;28;20131;-72
2022/12/07 09:17:10;;;;;;;9.13;4.32;;;;;;;;;;5058687;28;20040;-73
2022/12/07 09:19:55;;;;;;;5.90;3.50;;;;;;;;;;5055384;28;20029;-73
2022/12/07 09:22:41;;;;;;;7.78;3.85;;;;;;;;;;5052163;28;20032;-73
2022/12/07 09:25:26;;;;;;;6.90;3.65;;;;;;;;;;5058564;28;20028;-71
2022/12/07 09:28:11;;;;;;;9.45;3.40;;;;;;;;;;5056505;28;20041;-73
2022/12/07 09:30:57;;;;;;;7.55;3.53;;;;;;;;;;5056257;28;20039;-75
2022/12/07 09:33:42;;;;;;;8.02;4.03;;;;;;;;;;5052391;28;20033;-74
2022/12/07 09:36:27;;;;;;;7.28;4.07;;;;;;;;;;5056015;28;20475;-72
2022/12/07 09:39:13;;;;;;;8.43;3.90;;;;;;;;;;5058571;28;20154;-70
2022/12/07 09:41:59;;;;;;;6.55;3.50;;;;;;;;;;5041624;28;20109;-70
2022/12/07 09:44:44;;;;;;;6.25;3.53;;;;;;;;;;5060321;28;20387;-70
2022/12/07 09:47:30;;;;;;;9.07;3.92;;;;;;;;;;5062013;28;20028;-71
2022/12/07 09:50:17;;;;;;;6.30;3.42;;;;;;;;;;5059638;28;20588;-68
2022/12/07 09:53:07;;;;;;;6.88;3.20;;;;;;;;;;5056276;28;20720;-74
2022/12/07 09:55:53;;;;;;;6.15;3.95;;;;;;;;;;5055125;28;20522;-71
2022/12/07 09:58:38;;;;;;;12.52;4.05;;;;;;;;;;5067849;28;20422;-69
2022/12/07 10:01:24;;;;;;;6.55;3.30;;;;;;;;;;5056535;28;20467;-70
2022/12/07 10:04:12;;;;;;;9.00;4.60;;;;;;;;;;5035292;28;20201;-71
2022/12/07 10:06:57;;;;;;;9.88;3.80;;;;;;;;;;5041596;28;20063;-69
2022/12/07 10:09:43;;;;;;;9.00;3.83;;;;;;;;;;5068971;28;20644;-68
2022/12/07 10:12:28;;;;;;;4.93;2.65;;;;;;;;;;5054780;28;20034;-74
2022/12/07 10:15:14;;;;;;;6.03;2.95;;;;;;;;;;5059664;28;20039;-75
2022/12/07 10:18:00;;;;;;;7.60;3.30;;;;;;;;;;5053072;28;20387;-72
2022/12/07 10:20:46;;;;;;;7.60;2.75;;;;;;;;;;5055026;28;20181;-70
2022/12/07 10:23:31;;;;;;;6.82;3.55;;;;;;;;;;5059266;28;20525;-74
2022/12/07 10:26:36;;;;;;;3.88;2.20;;;;;;;;;;5041034;28;20447;-74
2022/12/07 10:29:21;;;;;;;4.88;2.60;;;;;;;;;;5054999;28;20386;-69
2022/12/07 10:32:15;;;;;;;4.75;2.83;;;;;;;;;;5048587;28;20410;-75
2022/12/07 10:35:16;;;;;;;6.75;2.90;;;;;;;;;;5095065;22;20409;-76
2022/12/07 10:38:15;;;;;;;6.88;2.55;;;;;;;;;;5076131;28;20027;-77
2022/12/07 10:41:07;;;;;;;7.53;3.33;;;;;;;;;;5071846;28;20027;-75
2022/12/07 10:43:53;;;;;;;4.78;2.72;;;;;;;;;;5074588;28;20115;-74
2022/12/07 10:46:51;;;;;;;6.20;2.75;;;;;;;;;;5060906;28;20028;-73
2022/12/07 10:49:36;;;;;;;5.60;2.65;;;;;;;;;;5061525;28;20024;-69
2022/12/07 10:52:28;;;;;;;5.07;2.70;;;;;;;;;;5092180;22;20462;-72
2022/12/07 10:55:17;;;;;;;5.88;2.60;;;;;;;;;;5092842;28;20039;-69
2022/12/07 10:58:06;;;;;;;5.18;3.20;;;;;;;;;;5073087;28;20024;-69
2022/12/07 11:00:51;;;;;;;4.60;2.78;;;;;;;;;;5064126;28;20034;-73
2022/12/07 11:03:55;;;;;;;5.85;3.20;;;;;;;;;;5075134;28;20028;-71
2022/12/07 11:07:00;;;;;;;5.65;2.80;;;;;;;;;;5073234;28;20030;-73
2022/12/07 11:09:57;;;;;;;6.43;3.05;;;;;;;;;;5067451;28;20032;-72
2022/12/07 11:12:52;;;;;;;4.97;2.50;;;;;;;;;;5063924;28;20035;-70
2022/12/07 11:15:46;;;;;;;5.05;2.25;;;;;;;;;;5066172;28;20113;-72
2022/12/07 11:18:39;;;;;;;4.75;2.58;;;;;;;;;;5072888;28;20039;-73
2022/12/07 11:21:50;;;;;;;5.03;2.72;;;;;;;;;;5067047;28;20028;-73
2022/12/07 11:24:54;;;;;;;5.97;2.35;;;;;;;;;;5085093;28;20063;-72
2022/12/07 11:27:43;;;;;;;4.32;2.50;;;;;;;;;;5073260;28;20031;-72
2022/12/07 11:30:51;;;;;;;4.43;2.47;;;;;;;;;;5067213;28;20020;-75
2022/12/07 11:33:44;;;;;;;4.63;2.20;;;;;;;;;;5069960;28;21815;-73
2022/12/07 11:36:35;;;;;;;4.07;2.47;;;;;;;;;;5040445;28;20047;-74
2022/12/07 11:39:28;;;;;;;2.72;1.77;;;;;;;;;;5064101;28;20073;-74
2022/12/07 11:42:16;;;;;;;4.05;2.13;;;;;;;;;;5075983;28;20038;-76
2022/12/07 11:45:14;;;;;;;3.78;2.20;;;;;;;;;;5065677;28;20047;-77
2022/12/07 11:48:01;;;;;;;2.33;1.73;;;;;;;;;;5074639;28;20050;-75
2022/12/07 11:50:54;;;;;;;3.75;1.90;;;;;;;;;;5063542;28;20038;-76
2022/12/07 11:53:41;;;;;;;6.75;2.03;;;;;;;;;;5075985;28;20274;-76
2022/12/07 11:56:27;;;;;;;2.58;1.83;;;;;;;;;;5053405;28;20040;-77
2022/12/07 11:59:16;;;;;;;3.55;2.00;;;;;;;;;;5076913;28;20036;-78
2022/12/07 12:02:11;;;;;;;3.22;1.80;;;;;;;;;;5070417;28;20103;-76
2022/12/07 12:05:15;;;;;;;3.85;2.17;;;;;;;;;;5071044;28;20020;-70
2022/12/07 12:08:13;;;;;;;4.82;2.35;;;;;;;;;;5068830;28;20024;-71
2022/12/07 12:11:10;;;;;;;2.80;2.08;;;;;;;;;;5074166;28;20032;-69
2022/12/07 12:14:04;;;;;;;2.25;1.52;;;;;;;;;;5069332;28;20059;-69
2022/12/07 12:17:03;;;;;;;3.67;2.17;;;;;;;;;;5077024;28;20044;-71
2022/12/07 12:19:57;;;;;;;3.88;1.90;;;;;;;;;;5083708;28;20111;-70
2022/12/07 12:22:46;;;;;;;5.18;2.60;;;;;;;;;;5068514;28;20024;-72
2022/12/07 12:25:38;;;;;;;2.33;1.73;;;;;;;;;;5071057;28;20015;-76
2022/12/07 12:28:29;;;;;;;3.85;2.15;;;;;;;;;;5066216;28;20027;-72
2022/12/07 12:31:21;;;;;;;3.67;2.35;;;;;;;;;;5093785;28;20035;-73
2022/12/07 12:34:25;;;;;;;3.47;1.92;;;;;;;;;;5054320;28;20039;-73
2022/12/07 12:37:29;;;;;;;5.70;2.97;;;;;;;;;;5067503;28;20083;-73
2022/12/07 12:40:14;;;;;;;4.03;2.40;;;;;;;;;;5069575;28;20023;-70
2022/12/07 12:43:00;;;;;;;6.93;4.10;;;;;;;;;;5069592;28;20055;-74
2022/12/07 12:45:45;;;;;;;6.90;3.90;;;;;;;;;;5073709;28;20023;-76
2022/12/07 12:48:36;;;;;;;5.53;3.08;;;;;;;;;;5068337;28;20111;-74
2022/12/07 12:51:39;;;;;;;5.20;2.42;;;;;;;;;;5079207;28;20035;-73
2022/12/07 12:54:25;;;;;;;7.22;3.28;;;;;;;;;;5065464;28;20044;-77
2022/12/07 12:57:22;;;;;;;4.90;3.17;;;;;;;;;;5082062;28;20055;-71
2022/12/07 13:00:16;;;;;;;4.55;2.72;;;;;;;;;;5081449;28;20485;-72
2022/12/07 13:03:02;;;;;;;4.55;2.85;;;;;;;;;;5088681;28;20039;-74
2022/12/07 13:05:47;;;;;;;5.90;3.38;;;;;;;;;;5073736;28;20471;-70
2022/12/07 13:08:34;;;;;;;4.78;3.03;;;;;;;;;;5074964;28;20036;-71
2022/12/07 13:11:24;;;;;;;4.57;2.92;;;;;;;;;;5066614;28;20387;-70
2022/12/07 13:14:28;;;;;;;7.00;3.10;;;;;;;;;;5081124;28;20184;-69
2022/12/07 13:17:32;;;;;;;5.18;3.03;;;;;;;;;;5074381;28;20499;-73
2022/12/07 13:20:36;;;;;;;4.65;2.70;;;;;;;;;;5080407;28;20062;-74
2022/12/07 13:23:24;;;;;;;6.75;2.70;;;;;;;;;;5072782;28;20119;-77
2022/12/07 13:26:20;;;;;;;4.10;2.53;;;;;;;;;;5066632;28;20032;-75
2022/12/07 13:29:13;;;;;;;6.10;3.28;;;;;;;;;;5093136;28;20023;-64
2022/12/07 13:31:58;;;;;;;4.82;2.47;;;;;;;;;;5076171;28;20056;-65
2022/12/07 13:34:44;;;;;;;3.50;2.10;;;;;;;;;;5074930;28;20036;-71
2022/12/07 13:37:32;;;;;;;4.30;2.55;;;;;;;;;;5071422;28;20036;-67
2022/12/07 13:40:19;;;;;;;3.97;2.60;;;;;;;;;;5093843;28;20462;-67
2022/12/07 13:43:12;;;;;;;6.57;2.40;;;;;;;;;;5061456;28;20038;-72
2022/12/07 13:45:58;;;;;;;6.10;2.28;;;;;;;;;;5073237;28;20016;-69
2022/12/07 13:48:47;;;;;;;3.40;2.20;;;;;;;;;;5076624;28;20387;-69
2022/12/07 13:51:34;;;;;;;4.28;2.80;;;;;;;;;;5075102;28;20040;-68
2022/12/07 13:54:20;;;;;;;5.80;2.85;;;;;;;;;;5074444;28;20059;-70
2022/12/07 13:57:06;;;;;;;3.63;2.35;;;;;;;;;;5083245;28;20027;-72
2022/12/07 13:59:51;;;;;;;3.05;1.95;;;;;;;;;;5076063;28;20035;-70
2022/12/07 14:02:53;;;;;;;3.90;2.05;;;;;;;;;;5074583;28;20048;-69
2022/12/07 14:05:42;;;;;;;3.33;2.22;;;;;;;;;;5087951;28;20026;-70
2022/12/07 14:08:29;;;;;;;4.17;2.43;;;;;;;;;;5073876;28;20065;-75
2022/12/07 14:11:20;;;;;;;6.03;2.83;;;;;;;;;;5078196;28;20319;-71
2022/12/07 14:14:05;;;;;;;4.38;2.65;;;;;;;;;;5074890;28;20408;-70
2022/12/07 14:17:01;;;;;;;4.43;2.47;;;;;;;;;;5069891;28;20032;-70
2022/12/07 14:19:49;;;;;;;3.33;2.13;;;;;;;;;;5063912;28;20511;-72
2022/12/07 14:22:36;;;;;;;6.13;2.42;;;;;;;;;;5089507;28;20099;-71
2022/12/07 14:25:22;;;;;;;5.38;2.35;;;;;;;;;;5074951;28;20039;-75
2022/12/07 14:28:24;;;;;;;4.35;2.33;;;;;;;;;;5071001;28;20034;-71
2022/12/07 14:31:12;;;;;;;2.97;1.80;;;;;;;;;;5071052;28;20020;-72
2022/12/07 14:34:00;;;;;;;4.93;2.38;;;;;;;;;;5074853;28;20111;-77
2022/12/07 14:36:45;;;;;;;4.45;2.50;;;;;;;;;;5077939;28;20093;-76
2022/12/07 14:39:30;;;;;;;7.28;3.63;;;;;;;;;;5067503;28;20442;-76
2022/12/07 14:42:16;;;;;;;5.82;2.90;;;;;;;;;;5077080;28;20114;-75
2022/12/07 14:45:01;;;;;;;8.50;4.10;;;;;;;;;;5070032;28;20016;-75
2022/12/07 14:47:46;;;;;;;9.10;3.97;;;;;;;;;;5070740;28;20035;-67
2022/12/07 14:50:34;;;;;;;6.13;3.38;;;;;;;;;;5077197;28;21728;-73
2022/12/07 14:53:24;;;;;;;8.43;3.50;;;;;;;;;;5082391;28;20112;-74
2022/12/07 14:56:09;;;;;;;8.00;3.40;;;;;;;;;;5066474;28;20043;-74
2022/12/07 14:58:54;;;;;;;6.32;3.35;;;;;;;;;;5063277;28;20024;-74
2022/12/07 15:01:39;;;;;;;4.88;3.35;;;;;;;;;;5067032;28;20036;-73
2022/12/07 15:04:25;;;;;;;5.32;3.67;;;;;;;;;;5067297;28;20031;-72
2022/12/07 15:07:14;;;;;;;7.15;3.33;;;;;;;;;;5070797;28;20839;-71
2022/12/07 15:09:59;;;;;;;5.95;3.92;;;;;;;;;;5073534;28;20025;-77
2022/12/07 15:12:45;;;;;;;5.88;3.47;;;;;;;;;;5071521;28;20616;-77
2022/12/07 15:15:30;;;;;;;6.25;3.65;;;;;;;;;;5052783;28;20036;-77
2022/12/07 15:18:15;;;;;;;6.45;3.65;;;;;;;;;;5067954;28;20106;-77
2022/12/07 15:21:01;;;;;;;5.80;3.45;;;;;;;;;;5074868;28;20031;-77
2022/12/07 15:23:46;;;;;;;7.15;4.00;;;;;;;;;;5059557;28;20016;-72
2022/12/07 15:26:32;;;;;;;8.00;3.97;;;;;;;;;;5054433;28;20108;-69
2022/12/07 15:29:17;;;;;;;5.65;3.65;;;;;;;;;;5071214;28;20032;-71
2022/12/07 15:32:02;;;;;;;6.57;3.80;;;;;;;;;;5068586;28;20471;-70
2022/12/07 15:34:48;;;;;;;7.93;3.85;;;;;;;;;;5069095;28;20028;-72
2022/12/07 15:37:33;;;;;;;11.30;4.20;;;;;;;;;;5072083;28;20047;-70
2022/12/07 15:40:18;;;;;;;6.90;3.60;;;;;;;;;;5071002;28;20074;-71
2022/12/07 15:43:04;;;;;;;7.15;3.67;;;;;;;;;;5093699;28;20051;-70
2022/12/07 15:45:49;;;;;;;4.75;2.88;;;;;;;;;;5085439;28;20031;-68
2022/12/07 15:48:34;;;;;;;7.20;3.47;;;;;;;;;;5075012;28;20031;-68
2022/12/07 15:51:20;;;;;;;6.95;3.53;;;;;;;;;;5087672;28;20084;-69
2022/12/07 15:54:05;;;;;;;5.38;3.10;;;;;;;;;;5075199;28;20070;-70
2022/12/07 15:56:50;;;;;;;5.43;3.33;;;;;;;;;;5096708;28;20149;-70
2022/12/07 15:59:35;;;;;;;7.13;3.40;;;;;;;;;;5076291;28;20035;-69
2022/12/07 16:02:22;;;;;;;8.45;4.70;;;;;;;;;;5070272;28;20540;-70
2022/12/07 16:05:07;;;;;;;8.15;4.07;;;;;;;;;;5070498;28;20032;-78
2022/12/07 16:07:52;;;;;;;8.13;3.80;;;;;;;;;;5063541;28;20036;-80
2022/12/07 16:10:38;;;;;;;7.93;4.25;;;;;;;;;;5086919;28;20031;-80
2022/12/07 16:13:23;;;;;;;7.53;4.22;;;;;;;;;;5056169;28;20009;-79
2022/12/07 16:16:11;;;;;;;6.85;3.88;;;;;;;;;;5070357;28;20438;-79
2022/12/07 16:18:57;;;;;;;8.48;4.20;;;;;;;;;;5088656;28;20474;-74
2022/12/07 16:21:42;;;;;;;7.85;4.82;;;;;;;;;;5075132;28;20028;-68
2022/12/07 16:24:27;;;;;;;10.43;5.20;;;;;;;;;;5072734;28;20039;-70
2022/12/07 16:27:12;;;;;;;11.23;5.40;;;;;;;;;;5081642;28;20024;-72
2022/12/07 16:29:58;;;;;;;9.50;5.05;;;;;;;;;;5064994;28;20021;-73
2022/12/07 16:32:43;;;;;;;10.73;5.65;;;;;;;;;;5075530;28;20088;-71
2022/12/07 16:35:28;;;;;;;11.52;6.05;;;;;;;;;;5096965;28;20028;-72
2022/12/07 16:38:13;;;;;;;10.65;5.75;;;;;;;;;;5073648;28;20511;-67
2022/12/07 16:40:58;;;;;;;11.70;6.07;;;;;;;;;;5079240;28;20503;-74
2022/12/07 16:43:44;;;;;;;13.10;6.32;;;;;;;;;;5062885;28;20046;-74
2022/12/07 16:46:30;;;;;;;12.60;5.97;;;;;;;;;;5077985;28;20027;-75
2022/12/07 16:49:16;;;;;;;11.48;6.20;;;;;;;;;;5087664;28;20028;-74